Diamonds Are Forever — ZGCE4 — position and weather

sailwx.info

Track history (hours):
 
Tides and Currents Weather Stations Pressure Air Temp Water Temp Dewpoint Dewpoint Depression Visibility Wind Speed Wind Dir Waves Ship Positions

Diamonds Are Forever

Last reported at 2014-Sep-12 12:17 UTC. Time now 2014-Sep-18 05:43 UTC.
Position N 42°42' E 010°27'.

Length 60 m; draft 0.4 m.

Type: Ship. MMSI: 319806000.

Date/timePositionNaut miles runAvg speedWind from/ knotsBaromVisibWave heightAir tempDewpointWater temp
2014-Sep-12 12:17N 42°42' E 010°27'152 7.7
2014-Sep-11 16:33N 43°16' E 007°04'1212.5
2014-Sep-11 15:33N 43°17' E 006°47'7 5.5
2014-Sep-11 14:18N 43°16' E 006°38'0 0.0
2014-Sep-11 13:32N 43°16' E 006°38'0 0.0
2014-Sep-11 12:28N 43°16' E 006°38'0 0.0
2014-Sep-11 11:30N 43°16' E 006°38'0 0.0
2014-Sep-11 10:20N 43°16' E 006°38'0 0.0
2014-Sep-11 09:33N 43°16' E 006°38'0 0.0
2014-Sep-11 08:33N 43°16' E 006°38'4110.2
2014-Sep-11 04:33N 43°40' E 007°23'  
2014-Sep-08 11:14N 43°44' E 007°26'6 6.7
2014-Sep-08 10:22N 43°38' E 007°24'1213.1
2014-Sep-08 09:27N 43°29' E 007°13'1112.5
2014-Sep-08 08:33N 43°21' E 007°02'1312.6
2014-Sep-08 07:33N 43°12' E 006°50'1612.6
2014-Sep-08 06:16N 43°00' E 006°35'912.4
2014-Sep-08 05:32N 42°54' E 006°27'1712.4
2014-Sep-08 04:10N 42°42' E 006°10'19413.2
2014-Sep-07 13:27N 40°20' E 003°14'1213.2
2014-Sep-07 12:34N 40°11' E 003°04'1312.9
2014-Sep-07 11:33N 40°02' E 002°52'1312.9
2014-Sep-07 10:33N 39°53' E 002°40'1312.8
2014-Sep-07 09:30N 39°43' E 002°28'1212.5
2014-Sep-07 08:33N 39°34' E 002°18'9 0.5
2014-Sep-06 15:03N 39°29' E 002°28'  
Track history (hours):
 
Tides and Currents Weather Stations Pressure Air Temp Water Temp Dewpoint Dewpoint Depression Visibility Wind Speed Wind Dir Waves Ship Positions

Diamonds Are Forever

Last reported at 2014-Sep-12 12:17 UTC. Time now 2014-Sep-18 05:43 UTC.
Position N 42°42' E 010°27'.

Length 60 m; draft 0.4 m.

Type: Ship. MMSI: 319806000.

Date/timePositionNaut miles runAvg speedWind from/ knotsBaromVisibWave heightAir tempDewpointWater temp
2014-Sep-12 12:17N 42°42' E 010°27'152 7.7
2014-Sep-11 16:33N 43°16' E 007°04'1212.5
2014-Sep-11 15:33N 43°17' E 006°47'7 5.5
2014-Sep-11 14:18N 43°16' E 006°38'0 0.0
2014-Sep-11 13:32N 43°16' E 006°38'0 0.0
2014-Sep-11 12:28N 43°16' E 006°38'0 0.0
2014-Sep-11 11:30N 43°16' E 006°38'0 0.0
2014-Sep-11 10:20N 43°16' E 006°38'0 0.0
2014-Sep-11 09:33N 43°16' E 006°38'0 0.0
2014-Sep-11 08:33N 43°16' E 006°38'4110.2
2014-Sep-11 04:33N 43°40' E 007°23'  
2014-Sep-08 11:14N 43°44' E 007°26'6 6.7
2014-Sep-08 10:22N 43°38' E 007°24'1213.1
2014-Sep-08 09:27N 43°29' E 007°13'1112.5
2014-Sep-08 08:33N 43°21' E 007°02'1312.6
2014-Sep-08 07:33N 43°12' E 006°50'1612.6
2014-Sep-08 06:16N 43°00' E 006°35'912.4
2014-Sep-08 05:32N 42°54' E 006°27'1712.4
2014-Sep-08 04:10N 42°42' E 006°10'19413.2
2014-Sep-07 13:27N 40°20' E 003°14'1213.2
2014-Sep-07 12:34N 40°11' E 003°04'1312.9
2014-Sep-07 11:33N 40°02' E 002°52'1312.9
2014-Sep-07 10:33N 39°53' E 002°40'1312.8
2014-Sep-07 09:30N 39°43' E 002°28'1212.5
2014-Sep-07 08:33N 39°34' E 002°18'9 0.5
2014-Sep-06 15:03N 39°29' E 002°28'  

Dump ship's entire track history